Time;durP1;ratioP1;P1;durP2;ratioP2;P2;SDS_P1;SDS_P2;PMS_P1;PMS_P2;Temp;Humidity;BMP_temperature;BMP_pressure;BME280_temperature;BME280_humidity;BME280_pressure;Samples;Min_cycle;Max_cycle;Signal;HPM_P1;HPM_P2
2022/11/23 00:02:07;;;;;;;1.45;1.27;;;7.20;99.90;;;;;;5071703;28;20051;-82
2022/11/23 00:04:32;;;;;;;1.25;0.98;;;7.20;99.90;;;;;;5090859;28;20074;-82
2022/11/23 00:06:58;;;;;;;1.35;1.25;;;7.40;99.90;;;;;;5090140;28;20065;-83
2022/11/23 00:09:24;;;;;;;1.13;1.02;;;7.30;99.90;;;;;;5090680;28;20067;-83
2022/11/23 00:11:50;;;;;;;0.52;0.30;;;7.20;99.90;;;;;;5090172;28;20083;-83
2022/11/23 00:14:16;;;;;;;0.40;0.35;;;7.20;99.90;;;;;;5089741;28;20047;-83
2022/11/23 00:16:41;;;;;;;0.45;0.45;;;7.20;99.90;;;;;;5090236;28;20527;-83
2022/11/23 00:19:08;;;;;;;1.23;0.57;;;7.30;99.90;;;;;;5089763;28;20040;-82
2022/11/23 00:21:33;;;;;;;1.90;1.73;;;7.40;99.90;;;;;;5089028;28;20050;-83
2022/11/23 00:23:59;;;;;;;0.57;0.57;;;7.40;99.90;;;;;;5089689;28;20059;-83
2022/11/23 00:26:25;;;;;;;1.80;1.55;;;7.30;99.90;;;;;;5089736;28;20071;-83
2022/11/23 00:28:51;;;;;;;1.88;0.60;;;7.30;99.90;;;;;;5090579;28;20051;-83
2022/11/23 00:31:18;;;;;;;0.63;0.60;;;7.40;99.90;;;;;;5092512;28;20055;-83
2022/11/23 00:33:49;;;;;;;0.60;0.50;;;7.40;99.90;;;;;;5091269;28;20044;-83
2022/11/23 00:36:16;;;;;;;0.65;0.55;;;7.40;99.90;;;;;;5090621;28;20035;-82
2022/11/23 00:38:43;;;;;;;0.88;0.75;;;7.40;99.90;;;;;;5071510;28;20044;-82
2022/11/23 00:41:11;;;;;;;0.98;0.52;;;7.40;99.90;;;;;;5090467;28;20098;-83
2022/11/23 00:43:36;;;;;;;1.25;1.15;;;7.90;99.90;;;;;;5087821;28;20047;-83
2022/11/23 00:46:26;;;;;;;3.70;1.77;;;7.50;99.90;;;;;;5089402;28;20040;-83
2022/11/23 00:48:54;;;;;;;1.13;0.40;;;7.50;99.90;;;;;;5060607;28;20128;-83
2022/11/23 00:51:25;;;;;;;0.40;0.40;;;7.50;99.90;;;;;;5070258;28;20056;-82
2022/11/23 00:53:52;;;;;;;4.80;0.88;;;7.50;99.90;;;;;;5089184;28;20040;-83
2022/11/23 00:56:18;;;;;;;2.75;2.50;;;7.50;99.90;;;;;;5088647;28;20044;-81
2022/11/23 00:58:51;;;;;;;4.50;1.13;;;8.40;99.90;;;;;;5088992;28;20914;-82
2022/11/23 01:01:20;;;;;;;2.40;1.20;;;7.50;99.90;;;;;;5088815;28;20040;-82
2022/11/23 01:03:52;;;;;;;2.40;2.10;;;7.60;99.90;;;;;;5089010;28;20104;-82
2022/11/23 01:06:29;;;;;;;1.70;1.08;;;7.60;99.90;;;;;;5088578;28;20052;-82
2022/11/23 01:09:01;;;;;;;16.13;1.48;;;7.60;99.90;;;;;;5088561;28;20052;-83
2022/11/23 01:11:31;;;;;;;0.32;0.32;;;7.60;99.90;;;;;;5089312;28;20056;-83
2022/11/23 01:13:57;;;;;;;0.38;0.38;;;8.00;99.90;;;;;;5089057;28;20063;-82
2022/11/23 01:16:29;;;;;;;0.60;0.60;;;7.60;99.90;;;;;;5087703;28;20080;-82
2022/11/23 01:18:56;;;;;;;0.65;0.63;;;7.70;99.90;;;;;;5069352;28;20059;-82
2022/11/23 01:21:22;;;;;;;0.43;0.43;;;7.60;99.90;;;;;;5083108;28;20144;-82
2022/11/23 01:23:48;;;;;;;0.32;0.32;;;7.60;99.90;;;;;;5070513;28;20094;-82
2022/11/23 01:26:14;;;;;;;1.80;0.98;;;8.20;99.90;;;;;;5088953;28;20047;-82
2022/11/23 01:28:39;;;;;;;0.63;0.63;;;7.80;99.90;;;;;;5088995;28;20745;-82
2022/11/23 01:31:20;;;;;;;1.23;0.73;;;8.40;99.90;;;;;;5088795;28;20040;-82
2022/11/23 01:33:46;;;;;;;0.35;0.35;;;7.70;99.90;;;;;;5088464;28;20047;-82
2022/11/23 01:36:17;;;;;;;5.25;1.33;;;7.70;99.90;;;;;;5088449;28;20138;-82
2022/11/23 01:38:44;;;;;;;0.65;0.55;;;8.20;99.90;;;;;;5088595;28;20114;-82
2022/11/23 01:41:13;;;;;;;0.68;0.68;;;7.70;99.90;;;;;;5087940;28;20085;-82
2022/11/23 01:43:39;;;;;;;0.40;0.40;;;7.70;99.90;;;;;;5070019;28;20048;-82
2022/11/23 01:46:06;;;;;;;0.20;0.20;;;7.60;99.90;;;;;;5071036;28;20072;-82
2022/11/23 01:48:46;;;;;;;2.35;1.45;;;7.60;99.90;;;;;;5088159;28;20055;-81
2022/11/23 01:51:15;;;;;;;1.55;1.30;;;7.70;99.90;;;;;;5089000;28;20047;-82
2022/11/23 01:53:43;;;;;;;0.35;0.35;;;7.70;99.90;;;;;;5088827;28;20509;-82
2022/11/23 01:56:13;;;;;;;0.77;0.77;;;7.80;99.90;;;;;;5053743;28;20055;-82
2022/11/23 01:58:42;;;;;;;0.60;0.50;;;7.90;99.90;;;;;;5070325;28;20051;-82
2022/11/23 02:01:08;;;;;;;0.45;0.45;;;7.80;99.90;;;;;;5053295;28;20138;-82
2022/11/23 02:03:36;;;;;;;0.60;0.57;;;7.90;99.90;;;;;;5069785;28;20131;-82
2022/11/23 02:06:06;;;;;;;1.55;1.23;;;8.00;99.90;;;;;;5088229;28;20126;-82
2022/11/23 02:08:33;;;;;;;1.83;0.82;;;7.80;99.90;;;;;;5054293;28;20048;-82
2022/11/23 02:10:59;;;;;;;0.30;0.30;;;7.90;99.90;;;;;;5056954;28;20914;-82
2022/11/23 02:13:27;;;;;;;3.63;1.25;;;7.80;99.90;;;;;;5091585;28;20397;-82
2022/11/23 02:15:54;;;;;;;0.57;0.55;;;7.80;99.90;;;;;;5092533;28;20135;-82
2022/11/23 02:18:22;;;;;;;1.42;1.33;;;7.90;99.90;;;;;;5073407;28;20040;-82
2022/11/23 02:20:49;;;;;;;1.27;1.08;;;7.80;99.90;;;;;;5056850;28;20477;-82
2022/11/23 02:23:20;;;;;;;0.32;0.32;;;7.80;99.90;;;;;;5092563;28;20097;-82
2022/11/23 02:25:45;;;;;;;2.30;1.20;;;7.80;99.90;;;;;;5092279;28;20538;-82
2022/11/23 02:28:15;;;;;;;0.15;0.15;;;7.80;99.90;;;;;;5074933;28;20048;-82
2022/11/23 02:30:43;;;;;;;0.52;0.52;;;7.80;99.90;;;;;;5093484;28;20109;-83
2022/11/23 02:33:08;;;;;;;1.77;0.43;;;8.00;99.90;;;;;;5097983;28;20051;-84
2022/11/23 02:35:34;;;;;;;0.60;0.55;;;7.90;99.90;;;;;;5099141;28;20024;-83
2022/11/23 02:38:04;;;;;;;0.38;0.38;;;7.80;99.90;;;;;;5098627;28;20101;-83
2022/11/23 02:40:35;;;;;;;0.82;0.47;;;7.80;99.90;;;;;;5078749;28;20060;-83
2022/11/23 02:43:01;;;;;;;0.63;0.63;;;7.80;99.90;;;;;;5097937;28;20048;-84
2022/11/23 02:45:40;;;;;;;1.27;1.17;;;7.80;99.90;;;;;;5078101;28;20087;-83
2022/11/23 02:48:06;;;;;;;0.43;0.43;;;7.80;99.90;;;;;;5093727;28;20062;-83
2022/11/23 02:50:31;;;;;;;0.30;0.30;;;7.70;99.90;;;;;;5093284;28;20063;-83
2022/11/23 02:52:57;;;;;;;0.25;0.17;;;7.70;99.90;;;;;;5092935;28;20055;-83
2022/11/23 02:55:23;;;;;;;1.60;1.17;;;7.80;99.90;;;;;;5092578;28;20050;-83
2022/11/23 02:57:49;;;;;;;0.22;0.22;;;7.70;99.90;;;;;;5171891;22;20079;-76
2022/11/23 03:00:16;;;;;;;0.85;0.73;;;7.80;99.90;;;;;;5074449;28;20053;-77
2022/11/23 03:02:41;;;;;;;0.85;0.73;;;7.80;99.90;;;;;;5073214;28;20048;-77
2022/11/23 03:05:08;;;;;;;0.10;0.10;;;7.80;99.90;;;;;;5072420;28;20063;-76
2022/11/23 03:07:33;;;;;;;0.10;0.10;;;7.70;99.90;;;;;;5073696;28;20033;-76
2022/11/23 03:09:59;;;;;;;0.73;0.47;;;7.80;99.90;;;;;;5071299;28;20045;-77
2022/11/23 03:12:25;;;;;;;0.60;0.43;;;7.80;99.90;;;;;;5074419;28;20100;-77
2022/11/23 03:14:51;;;;;;;1.27;1.15;;;7.90;99.90;;;;;;5072257;28;20029;-76
2022/11/23 03:17:16;;;;;;;0.50;0.50;;;7.80;99.90;;;;;;5073434;28;20055;-75
2022/11/23 03:19:42;;;;;;;0.52;0.30;;;7.80;99.90;;;;;;5074922;28;20048;-76
2022/11/23 03:22:08;;;;;;;2.05;1.45;;;7.90;99.90;;;;;;5076246;28;20041;-75
2022/11/23 03:24:33;;;;;;;0.30;0.30;;;7.90;99.90;;;;;;5075230;28;20350;-76
2022/11/23 03:26:59;;;;;;;0.68;0.57;;;7.80;99.90;;;;;;5071612;28;20079;-76
2022/11/23 03:29:25;;;;;;;0.90;0.75;;;7.70;99.90;;;;;;5071861;28;20044;-77
2022/11/23 03:31:54;;;;;;;0.32;0.32;;;7.70;99.90;;;;;;5072853;28;20040;-75
2022/11/23 03:34:20;;;;;;;0.75;0.70;;;7.80;99.90;;;;;;5071959;28;20041;-78
2022/11/23 03:36:46;;;;;;;0.20;0.20;;;7.70;99.90;;;;;;5072158;28;20049;-75
2022/11/23 03:39:11;;;;;;;0.20;0.20;;;7.70;99.90;;;;;;5071721;28;21140;-75
2022/11/23 03:41:37;;;;;;;1.40;1.08;;;7.70;99.90;;;;;;5072649;28;20044;-76
2022/11/23 03:44:03;;;;;;;0.22;0.22;;;7.70;99.90;;;;;;5074746;28;20052;-75
2022/11/23 03:46:29;;;;;;;0.40;0.40;;;7.80;99.90;;;;;;5071972;28;20045;-76
2022/11/23 03:48:55;;;;;;;0.68;0.63;;;7.80;99.90;;;;;;5071893;28;20044;-74
2022/11/23 03:51:21;;;;;;;1.52;1.05;;;7.80;99.90;;;;;;5072927;28;20088;-74
2022/11/23 03:53:46;;;;;;;1.75;0.95;;;7.80;99.90;;;;;;5072077;28;20563;-74
2022/11/23 03:56:12;;;;;;;0.22;0.22;;;7.80;99.90;;;;;;5072795;28;20048;-75
2022/11/23 03:58:38;;;;;;;0.68;0.68;;;7.80;99.90;;;;;;5090700;28;20354;-76
2022/11/23 04:01:03;;;;;;;0.52;0.52;;;7.80;99.90;;;;;;5094337;28;20382;-75
2022/11/23 04:03:29;;;;;;;0.73;0.68;;;7.90;99.90;;;;;;5091948;28;20050;-76
2022/11/23 04:05:55;;;;;;;2.05;1.23;;;7.80;99.90;;;;;;5085708;28;20048;-75
2022/11/23 04:08:21;;;;;;;0.95;0.68;;;7.80;99.90;;;;;;5073069;28;20041;-75
2022/11/23 04:10:46;;;;;;;0.20;0.20;;;7.70;99.90;;;;;;5072374;28;20418;-75
2022/11/23 04:13:12;;;;;;;0.40;0.40;;;7.80;99.90;;;;;;5091605;28;20044;-75
2022/11/23 04:15:38;;;;;;;4.03;0.63;;;7.80;99.90;;;;;;5074946;28;20070;-76
2022/11/23 04:18:04;;;;;;;2.78;1.27;;;7.80;99.90;;;;;;5074504;28;20041;-75
2022/11/23 04:20:29;;;;;;;1.33;1.13;;;7.90;99.90;;;;;;5072873;28;20047;-75
2022/11/23 04:22:55;;;;;;;1.10;1.02;;;7.90;99.90;;;;;;5072751;28;20041;-74
2022/11/23 04:25:21;;;;;;;3.30;1.80;;;7.90;99.90;;;;;;5073063;28;20052;-75
2022/11/23 04:27:46;;;;;;;0.73;0.73;;;7.90;99.90;;;;;;5074956;28;20060;-75
2022/11/23 04:30:13;;;;;;;1.45;1.30;;;7.90;99.90;;;;;;5073205;28;20040;-78
2022/11/23 04:32:38;;;;;;;2.10;1.40;;;7.90;99.90;;;;;;5072981;28;20123;-75
2022/11/23 04:35:04;;;;;;;1.65;1.52;;;7.90;99.90;;;;;;5074861;28;20077;-76
2022/11/23 04:37:30;;;;;;;2.88;1.00;;;7.90;99.90;;;;;;5080509;28;20325;-77
2022/11/23 04:39:56;;;;;;;3.78;2.15;;;7.90;99.90;;;;;;5094189;28;20079;-75
2022/11/23 04:42:22;;;;;;;4.38;1.55;;;7.90;99.90;;;;;;5094353;28;20044;-76
2022/11/23 04:44:48;;;;;;;1.30;0.98;;;7.80;99.90;;;;;;5094697;28;20096;-75
2022/11/23 04:47:13;;;;;;;0.88;0.70;;;7.80;99.90;;;;;;5093015;28;20047;-75
2022/11/23 04:49:39;;;;;;;1.20;1.10;;;7.80;99.90;;;;;;5093936;28;20089;-75
2022/11/23 04:52:06;;;;;;;0.28;0.28;;;7.80;99.90;;;;;;5094078;28;20032;-76
2022/11/23 04:54:32;;;;;;;3.72;2.00;;;8.90;99.90;;;;;;5076061;28;20090;-76
2022/11/23 04:56:58;;;;;;;0.10;0.10;;;7.80;99.90;;;;;;5085859;28;20053;-74
2022/11/23 04:59:24;;;;;;;0.60;0.60;;;7.90;99.90;;;;;;5073443;28;20120;-75
2022/11/23 05:01:51;;;;;;;1.60;1.50;;;7.80;99.90;;;;;;5073736;28;20079;-74
2022/11/23 05:04:18;;;;;;;0.70;0.57;;;7.90;99.90;;;;;;5072679;28;20433;-75
2022/11/23 05:06:44;;;;;;;0.45;0.45;;;7.80;99.90;;;;;;5069841;28;20104;-73
2022/11/23 05:09:10;;;;;;;8.23;2.45;;;7.80;99.90;;;;;;5073677;28;20068;-75
2022/11/23 05:11:35;;;;;;;1.88;1.70;;;7.80;99.90;;;;;;5074374;28;20090;-74
2022/11/23 05:14:01;;;;;;;1.55;0.43;;;7.90;99.90;;;;;;5071767;28;20044;-76
2022/11/23 05:16:26;;;;;;;0.70;0.68;;;7.90;99.90;;;;;;5074549;28;20044;-75
2022/11/23 05:18:52;;;;;;;1.15;1.08;;;8.00;99.90;;;;;;5070331;28;20032;-75
2022/11/23 05:21:18;;;;;;;0.88;0.85;;;8.00;99.90;;;;;;5079756;28;20569;-75
2022/11/23 05:23:43;;;;;;;1.95;1.77;;;7.90;99.90;;;;;;5093796;28;20040;-76
2022/11/23 05:26:09;;;;;;;1.33;1.23;;;7.90;99.90;;;;;;5092601;28;20124;-75
2022/11/23 05:28:36;;;;;;;1.17;1.00;;;7.80;99.90;;;;;;5071860;28;20041;-75
2022/11/23 05:31:03;;;;;;;0.63;0.63;;;7.80;99.90;;;;;;5072312;28;20049;-75
2022/11/23 05:33:28;;;;;;;0.68;0.68;;;7.80;99.90;;;;;;5070520;28;20158;-76
2022/11/23 05:35:54;;;;;;;1.75;1.38;;;7.80;99.90;;;;;;5071684;28;20068;-74
2022/11/23 05:38:20;;;;;;;1.58;1.48;;;7.90;99.90;;;;;;5072394;28;20040;-75
2022/11/23 05:40:46;;;;;;;1.35;1.25;;;7.90;99.90;;;;;;5070721;28;20122;-75
2022/11/23 05:43:12;;;;;;;1.30;1.15;;;7.90;99.90;;;;;;5053328;28;20036;-76
2022/11/23 05:45:38;;;;;;;7.55;2.80;;;8.00;99.90;;;;;;5054060;28;20049;-75
2022/11/23 05:48:04;;;;;;;1.23;1.13;;;8.00;99.90;;;;;;5073279;28;20135;-75
2022/11/23 05:50:30;;;;;;;0.73;0.73;;;8.00;99.90;;;;;;5054084;28;20048;-75
2022/11/23 05:52:59;;;;;;;2.03;0.98;;;8.00;99.90;;;;;;5072552;28;20063;-74
2022/11/23 05:55:25;;;;;;;0.93;0.75;;;8.00;99.90;;;;;;5092488;28;20036;-75
2022/11/23 05:57:52;;;;;;;4.63;2.00;;;8.00;99.90;;;;;;5077180;28;20049;-74
2022/11/23 06:00:18;;;;;;;1.92;1.13;;;7.90;99.90;;;;;;5076617;28;20048;-75
2022/11/23 06:02:43;;;;;;;0.68;0.68;;;7.90;99.90;;;;;;5079320;28;20139;-75
2022/11/23 06:05:09;;;;;;;2.28;1.63;;;7.90;99.90;;;;;;5070730;28;20662;-75
2022/11/23 06:07:35;;;;;;;4.15;1.23;;;7.90;99.90;;;;;;5068494;28;20041;-75
2022/11/23 06:10:02;;;;;;;4.25;1.23;;;7.90;99.90;;;;;;5070825;28;20104;-75
2022/11/23 06:12:29;;;;;;;0.70;0.52;;;7.90;99.90;;;;;;5087018;28;20091;-74
2022/11/23 06:14:54;;;;;;;0.08;0.08;;;7.90;99.90;;;;;;5088990;28;20082;-76
2022/11/23 06:17:20;;;;;;;2.72;1.67;;;7.80;99.90;;;;;;5088892;28;20040;-76
2022/11/23 06:19:46;;;;;;;1.27;1.17;;;7.80;99.90;;;;;;5081709;28;20524;-75
2022/11/23 06:22:12;;;;;;;4.80;1.65;;;7.70;99.90;;;;;;5066447;28;20791;-74
2022/11/23 06:24:38;;;;;;;1.85;1.50;;;7.70;99.90;;;;;;5071917;28;20044;-74
2022/11/23 06:27:03;;;;;;;4.75;1.95;;;7.60;99.90;;;;;;5068083;28;20040;-75
2022/11/23 06:29:29;;;;;;;1.90;0.93;;;7.60;99.90;;;;;;5069747;28;20049;-75
2022/11/23 06:31:54;;;;;;;1.67;1.35;;;7.60;99.90;;;;;;5069528;28;20068;-75
2022/11/23 06:34:20;;;;;;;0.45;0.20;;;7.50;99.90;;;;;;5067441;28;20041;-74
2022/11/23 06:36:46;;;;;;;0.65;0.63;;;7.50;99.90;;;;;;5067051;28;20056;-74
2022/11/23 06:39:12;;;;;;;0.75;0.60;;;7.50;99.90;;;;;;5066784;28;20045;-74
2022/11/23 06:41:38;;;;;;;1.02;0.70;;;7.50;99.90;;;;;;5064913;28;20044;-74
2022/11/23 06:44:04;;;;;;;1.65;0.95;;;7.40;99.90;;;;;;5066239;28;20090;-75
2022/11/23 06:46:30;;;;;;;1.48;1.23;;;7.40;99.90;;;;;;5066256;28;20068;-75
2022/11/23 06:48:56;;;;;;;0.88;0.68;;;7.40;99.90;;;;;;5048741;28;20078;-76
2022/11/23 06:51:22;;;;;;;1.23;1.13;;;7.40;99.90;;;;;;5066080;28;20048;-75
2022/11/23 06:53:47;;;;;;;0.75;0.45;;;7.40;99.90;;;;;;5066356;28;20052;-75
2022/11/23 06:56:13;;;;;;;0.32;0.32;;;7.40;99.90;;;;;;5071239;28;20051;-73
2022/11/23 06:58:39;;;;;;;0.55;0.55;;;7.50;99.90;;;;;;5070262;28;20051;-76
2022/11/23 07:01:07;;;;;;;2.47;1.30;;;7.50;99.90;;;;;;5070497;28;20538;-74
2022/11/23 07:03:34;;;;;;;1.23;1.13;;;7.50;99.90;;;;;;5069473;28;20133;-73
2022/11/23 07:06:07;;;;;;;1.08;0.60;;;7.40;99.90;;;;;;5069368;28;20045;-75
2022/11/23 07:08:35;;;;;;;1.15;1.00;;;7.40;99.90;;;;;;5069953;28;20048;-76
2022/11/23 07:11:02;;;;;;;1.48;1.15;;;7.40;99.90;;;;;;5068279;28;20060;-74
2022/11/23 07:13:27;;;;;;;0.35;0.35;;;7.40;99.90;;;;;;5070061;28;20447;-74
2022/11/23 07:15:53;;;;;;;0.25;0.25;;;7.40;99.90;;;;;;5068262;28;20456;-74
2022/11/23 07:18:18;;;;;;;0.40;0.40;;;7.40;99.90;;;;;;5070030;28;20060;-74
2022/11/23 07:20:44;;;;;;;5.28;0.95;;;7.40;99.90;;;;;;5068358;28;20044;-72
2022/11/23 07:23:10;;;;;;;0.68;0.68;;;7.50;99.90;;;;;;5070115;28;20061;-73
2022/11/23 07:25:37;;;;;;;1.65;1.35;;;7.50;99.90;;;;;;5069462;28;20533;-74
2022/11/23 07:28:05;;;;;;;0.40;0.40;;;7.60;99.90;;;;;;5068854;28;20419;-76
2022/11/23 07:30:32;;;;;;;1.13;0.90;;;7.50;99.90;;;;;;5070185;28;20410;-74
2022/11/23 07:33:09;;;;;;;0.63;0.55;;;7.60;99.90;;;;;;5069462;28;20033;-73
2022/11/23 07:35:35;;;;;;;;;;;7.60;99.90;;;;;;5070056;28;20131;-71
2022/11/23 07:38:01;;;;;;;0.00;0.00;;;7.60;99.90;;;;;;5066901;28;20047;-70
2022/11/23 07:40:27;;;;;;;1.33;0.88;;;7.60;99.90;;;;;;5066514;28;20174;-72
2022/11/23 07:42:59;;;;;;;0.57;0.35;;;7.60;99.90;;;;;;5066935;28;20076;-73
2022/11/23 07:45:25;;;;;;;0.50;0.50;;;7.70;99.90;;;;;;5068363;28;20490;-71
2022/11/23 07:48:01;;;;;;;0.20;0.10;;;7.60;99.90;;;;;;5067241;28;20048;-73
2022/11/23 07:50:27;;;;;;;1.70;1.60;;;7.70;99.90;;;;;;5066834;28;20088;-76
2022/11/23 07:52:54;;;;;;;2.17;1.02;;;7.70;99.90;;;;;;5066134;28;20319;-74
2022/11/23 07:55:19;;;;;;;1.23;1.10;;;7.70;99.90;;;;;;5048504;28;20649;-74
2022/11/23 07:57:45;;;;;;;0.08;0.08;;;7.70;99.90;;;;;;5012770;28;1040497;-75
2022/11/23 08:00:11;;;;;;;0.00;0.00;;;7.70;99.90;;;;;;5067751;28;20052;-74
2022/11/23 08:02:38;;;;;;;0.52;0.32;;;7.80;99.90;;;;;;5067489;28;20053;-74
2022/11/23 08:05:04;;;;;;;2.85;0.70;;;7.80;99.90;;;;;;5064870;28;20048;-75
2022/11/23 08:07:29;;;;;;;0.00;0.00;;;7.70;99.90;;;;;;5065966;28;20048;-74
2022/11/23 08:09:55;;;;;;;0.38;0.35;;;7.70;99.90;;;;;;5066418;28;20040;-76
2022/11/23 08:12:21;;;;;;;0.22;0.22;;;7.80;99.90;;;;;;5066464;28;20112;-74
2022/11/23 08:14:46;;;;;;;0.38;0.30;;;7.80;99.90;;;;;;5067414;28;20051;-74
2022/11/23 08:17:12;;;;;;;0.43;0.43;;;7.90;99.90;;;;;;5064606;28;20480;-74
2022/11/23 08:19:38;;;;;;;2.75;0.90;;;7.90;99.90;;;;;;5064959;28;20052;-73
2022/11/23 08:22:03;;;;;;;0.45;0.13;;;8.00;99.90;;;;;;5065020;28;20045;-74
2022/11/23 08:24:29;;;;;;;0.95;0.80;;;7.90;99.90;;;;;;5065759;28;20040;-75
2022/11/23 08:26:55;;;;;;;0.30;0.30;;;7.90;99.90;;;;;;5065358;28;20090;-74
2022/11/23 08:29:21;;;;;;;2.38;0.30;;;7.90;99.90;;;;;;5064089;28;20037;-74
2022/11/23 08:31:47;;;;;;;0.00;0.00;;;8.00;99.90;;;;;;5064634;28;20051;-73
2022/11/23 08:34:13;;;;;;;1.73;0.80;;;8.00;99.90;;;;;;5063691;28;20045;-74
2022/11/23 08:36:38;;;;;;;0.10;0.10;;;8.00;99.90;;;;;;5063401;28;20045;-74
2022/11/23 08:39:04;;;;;;;1.23;1.13;;;8.00;99.90;;;;;;5064207;28;20048;-75
2022/11/23 08:41:30;;;;;;;0.03;0.03;;;8.00;99.90;;;;;;5064027;28;20040;-76
2022/11/23 08:43:56;;;;;;;0.00;0.00;;;8.00;99.90;;;;;;5063974;28;20185;-74
2022/11/23 08:46:21;;;;;;;1.27;0.88;;;8.00;99.90;;;;;;5065031;28;20080;-73
2022/11/23 08:48:47;;;;;;;0.43;0.43;;;8.00;99.90;;;;;;5065857;28;20044;-74
2022/11/23 08:51:13;;;;;;;0.22;0.22;;;8.10;99.90;;;;;;5065257;28;20109;-73
2022/11/23 08:53:38;;;;;;;0.28;0.28;;;8.10;99.90;;;;;;5064141;28;20517;-72
2022/11/23 08:56:06;;;;;;;0.75;0.75;;;8.20;99.90;;;;;;5047084;28;20559;-71
2022/11/23 08:58:32;;;;;;;3.50;1.90;;;8.20;99.90;;;;;;5063693;28;20606;-71
2022/11/23 09:00:58;;;;;;;0.43;0.28;;;8.20;99.90;;;;;;5065127;28;20066;-73
2022/11/23 09:03:23;;;;;;;4.97;1.75;;;8.30;99.90;;;;;;5064124;28;20091;-71
2022/11/23 09:05:50;;;;;;;0.25;0.20;;;8.30;99.90;;;;;;5064370;28;20432;-71
2022/11/23 09:08:16;;;;;;;0.13;0.13;;;8.40;99.90;;;;;;5063118;28;20086;-73
2022/11/23 09:10:42;;;;;;;0.22;0.22;;;8.40;99.90;;;;;;5061918;28;20044;-72
2022/11/23 09:13:08;;;;;;;1.20;1.10;;;8.40;99.90;;;;;;5063155;28;20055;-72
2022/11/23 09:15:34;;;;;;;0.00;0.00;;;8.50;99.90;;;;;;5063557;28;20045;-72
2022/11/23 09:18:00;;;;;;;3.55;2.72;;;8.70;99.90;;;;;;5064403;28;20051;-74
2022/11/23 09:20:26;;;;;;;10.50;1.75;;;8.70;99.90;;;;;;5064555;28;20048;-73
2022/11/23 09:22:53;;;;;;;0.00;0.00;;;8.70;99.30;;;;;;5064637;28;20632;-73
2022/11/23 09:25:20;;;;;;;1.10;0.57;;;8.70;96.30;;;;;;5063983;28;20433;-73
2022/11/23 09:27:46;;;;;;;0.47;0.30;;;8.70;99.90;;;;;;5062430;28;20052;-73
2022/11/23 09:30:12;;;;;;;0.70;0.30;;;8.80;99.90;;;;;;5064241;28;20041;-72
2022/11/23 09:32:38;;;;;;;0.00;0.00;;;8.90;99.90;;;;;;5065311;28;20084;-74
2022/11/23 09:35:04;;;;;;;0.43;0.43;;;8.90;99.90;;;;;;5063932;28;20063;-72
2022/11/23 09:37:30;;;;;;;0.00;0.00;;;8.90;1.80;;;;;;5064027;28;20110;-73
2022/11/23 09:39:55;;;;;;;0.00;0.00;;;9.00;99.90;;;;;;5064496;28;20101;-73
2022/11/23 09:42:49;;;;;;;0.40;0.32;;;9.00;6.60;;;;;;5063601;28;20276;-72
2022/11/23 09:45:44;;;;;;;0.30;0.28;;;9.00;59.40;;;;;;5063283;28;20048;-72
2022/11/23 09:48:22;;;;;;;1.52;1.17;;;8.90;98.60;;;;;;5045825;28;20090;-74
2022/11/23 09:50:51;;;;;;;0.75;0.55;;;8.90;40.20;;;;;;5063633;28;20052;-73
2022/11/23 09:53:37;;;;;;;0.20;0.20;;;8.90;1.00;;;;;;5064331;28;20044;-72
2022/11/23 09:56:03;;;;;;;0.10;0.10;;;8.90;1.00;;;;;;5061732;28;20090;-73
2022/11/23 09:58:35;;;;;;;0.10;0.10;;;8.90;1.00;;;;;;5063437;28;20099;-73
2022/11/23 10:01:03;;;;;;;1.65;0.85;;;9.10;1.00;;;;;;5064053;28;20460;-73
2022/11/23 10:03:36;;;;;;;9.07;0.65;;;9.10;99.90;;;;;;5063794;28;20052;-73
2022/11/23 10:06:11;;;;;;;0.65;0.65;;;9.20;99.90;;;;;;5063757;28;20115;-74
2022/11/23 10:08:44;;;;;;;1.20;0.80;;;9.20;99.90;;;;;;5063209;28;20131;-72
2022/11/23 10:11:31;;;;;;;8.75;1.92;;;9.20;99.90;;;;;;5063721;28;20064;-72
2022/11/23 10:14:18;;;;;;;0.15;0.15;;;9.20;99.90;;;;;;5060044;28;20130;-73
2022/11/23 10:17:14;;;;;;;1.92;0.80;;;9.30;99.90;;;;;;5063829;28;20044;-73
2022/11/23 10:19:58;;;;;;;0.60;0.60;;;9.30;1.00;;;;;;5064608;28;20050;-75
2022/11/23 10:22:51;;;;;;;0.00;0.00;;;9.20;1.00;;;;;;5063364;28;20123;-74
2022/11/23 10:25:21;;;;;;;0.80;0.75;;;9.20;99.90;;;;;;5062146;28;20109;-74
2022/11/23 10:27:49;;;;;;;1.35;0.70;;;9.30;99.90;;;;;;5064329;28;20047;-73
2022/11/23 10:30:17;;;;;;;0.00;0.00;;;9.20;99.90;;;;;;5064865;28;20041;-73
2022/11/23 10:32:55;;;;;;;6.55;1.90;;;9.30;99.90;;;;;;5068250;28;20122;-74
2022/11/23 10:35:34;;;;;;;0.00;0.00;;;9.30;31.20;;;;;;5066030;28;20530;-74
2022/11/23 10:38:20;;;;;;;0.00;0.00;;;9.20;99.90;;;;;;5066890;28;20055;-72
2022/11/23 10:40:58;;;;;;;0.75;0.43;;;9.30;82.50;;;;;;5068934;28;20136;-72
2022/11/23 10:43:28;;;;;;;3.08;1.42;;;9.30;75.70;;;;;;5068983;28;20549;-73
2022/11/23 10:46:41;;;;;;;0.00;0.00;;;9.30;99.90;;;;;;5051588;28;20094;-74
2022/11/23 10:49:14;;;;;;;0.00;0.00;;;9.30;1.00;;;;;;5068045;28;20438;-73
2022/11/23 10:51:54;;;;;;;0.10;0.10;;;9.20;1.00;;;;;;5067279;28;20770;-73
2022/11/23 10:54:54;;;;;;;20.17;0.98;;;9.20;70.20;;;;;;5067690;28;20062;-73
2022/11/23 10:57:43;;;;;;;0.13;0.13;;;9.30;1.00;;;;;;5046516;28;20135;-73
2022/11/23 11:00:14;;;;;;;4.75;0.90;;;9.30;99.90;;;;;;5069033;28;20541;-73
2022/11/23 11:02:44;;;;;;;1.30;0.93;;;9.30;1.00;;;;;;5068290;28;20041;-72
2022/11/23 11:05:26;;;;;;;0.20;0.15;;;9.20;1.00;;;;;;5068985;28;20048;-72
2022/11/23 11:07:53;;;;;;;1.20;0.68;;;9.30;1.00;;;;;;5067929;28;20048;-74
2022/11/23 11:10:36;;;;;;;1.95;1.23;;;9.10;99.90;;;;;;5066819;28;20506;-74
2022/11/23 11:13:03;;;;;;;0.30;0.30;;;9.00;1.00;;;;;;5068169;28;20056;-72
2022/11/23 11:15:29;;;;;;;1.55;0.55;;;9.00;1.00;;;;;;5069650;28;20634;-72
2022/11/23 11:17:57;;;;;;;6.57;2.22;;;9.10;1.00;;;;;;5069854;28;20056;-73
2022/11/23 11:20:30;;;;;;;0.10;0.10;;;9.10;1.00;;;;;;5069050;28;20053;-73
2022/11/23 11:23:14;;;;;;;1.38;1.27;;;9.20;1.00;;;;;;5068988;28;20083;-75
2022/11/23 11:25:40;;;;;;;0.00;0.00;;;8.80;83.20;;;;;;5068944;28;20052;-75
2022/11/23 11:28:31;;;;;;;1.40;1.30;;;8.80;99.90;;;;;;5068889;28;20067;-73
2022/11/23 11:31:03;;;;;;;0.00;0.00;;;8.90;99.90;;;;;;5067085;28;20290;-75
2022/11/23 11:33:39;;;;;;;1.10;0.75;;;8.90;99.90;;;;;;5048797;28;20060;-74
2022/11/23 11:36:07;;;;;;;0.10;0.10;;;9.00;99.70;;;;;;5068484;28;20048;-74
2022/11/23 11:38:35;;;;;;;0.22;0.17;;;9.20;29.10;;;;;;5067427;28;20059;-73
2022/11/23 11:41:13;;;;;;;0.08;0.08;;;9.40;92.20;;;;;;5067553;28;20053;-72
2022/11/23 11:43:55;;;;;;;1.00;0.55;;;9.50;99.90;;;;;;5067591;28;20058;-74
2022/11/23 11:46:21;;;;;;;1.70;0.32;;;9.60;1.00;;;;;;5068497;28;20044;-75
2022/11/23 11:48:52;;;;;;;1.15;0.90;;;9.60;1.00;;;;;;5067083;28;20055;-73
2022/11/23 11:51:27;;;;;;;0.50;0.50;;;9.40;99.90;;;;;;5067202;28;20383;-73
2022/11/23 11:54:01;;;;;;;0.28;0.28;;;9.40;1.00;;;;;;5069021;28;20501;-74
2022/11/23 11:56:33;;;;;;;0.08;0.08;;;9.40;1.00;;;;;;5068079;28;20044;-75
2022/11/23 11:59:26;;;;;;;0.20;0.20;;;9.60;42.80;;;;;;5068916;28;20056;-73
2022/11/23 12:02:17;;;;;;;16.65;0.30;;;9.80;99.90;;;;;;5067179;28;20443;-73
2022/11/23 12:04:53;;;;;;;1.92;0.93;;;9.80;99.90;;;;;;5066365;28;20056;-74
2022/11/23 12:07:51;;;;;;;3.08;1.42;;;9.80;1.00;;;;;;5066743;28;20063;-73
2022/11/23 12:10:24;;;;;;;0.20;0.17;;;10.10;99.90;;;;;;5067528;28;20037;-74
2022/11/23 12:12:51;;;;;;;0.00;0.00;;;10.50;99.90;;;;;;5068499;28;20055;-75
2022/11/23 12:15:19;;;;;;;0.45;0.38;;;10.70;45.20;;;;;;5068217;28;20056;-73
2022/11/23 12:18:02;;;;;;;0.85;0.75;;;10.70;1.00;;;;;;5066338;28;20049;-73
2022/11/23 12:21:03;;;;;;;0.95;0.70;;;10.50;1.00;;;;;;5066543;28;20045;-74
2022/11/23 12:23:49;;;;;;;0.15;0.15;;;10.50;99.90;;;;;;5067226;28;20057;-74
2022/11/23 12:26:35;;;;;;;0.55;0.50;;;10.80;99.90;;;;;;5065148;28;20119;-73
2022/11/23 12:29:30;;;;;;;0.20;0.20;;;10.80;99.90;;;;;;5045444;28;20112;-73
2022/11/23 12:32:33;;;;;;;0.65;0.50;;;11.10;99.90;;;;;;5051889;28;20490;-74
2022/11/23 12:35:26;;;;;;;0.22;0.20;;;11.20;29.50;;;;;;5024708;28;20072;-73
2022/11/23 12:38:03;;;;;;;1.55;1.02;;;11.40;99.90;;;;;;5065824;28;20056;-74
2022/11/23 12:40:59;;;;;;;1.55;0.40;;;11.40;1.00;;;;;;5067259;28;20066;-73
2022/11/23 12:43:31;;;;;;;0.55;0.20;;;11.50;63.80;;;;;;5067246;28;20144;-73
2022/11/23 12:46:11;;;;;;;6.88;1.50;;;11.50;15.90;;;;;;5067358;28;20091;-74
2022/11/23 12:48:53;;;;;;;0.10;0.10;;;11.40;99.90;;;;;;5065600;28;20138;-75
2022/11/23 12:51:56;;;;;;;0.00;0.00;;;11.70;1.00;;;;;;5066180;28;20064;-73
2022/11/23 12:54:50;;;;;;;0.08;0.08;;;11.70;1.00;;;;;;5044628;28;20136;-72
2022/11/23 12:57:31;;;;;;;0.10;0.10;;;11.60;91.10;;;;;;5065238;28;20072;-75
2022/11/23 13:00:16;;;;;;;0.00;0.00;;;11.80;90.40;;;;;;5067658;28;20049;-74
2022/11/23 13:02:47;;;;;;;0.32;0.32;;;12.00;1.00;;;;;;5067020;28;20062;-73
2022/11/23 13:05:37;;;;;;;0.20;0.20;;;11.90;99.90;;;;;;5067111;28;20056;-73
2022/11/23 13:08:43;;;;;;;0.00;0.00;;;11.80;99.90;;;;;;5066463;28;20076;-74
2022/11/23 13:11:42;;;;;;;2.72;0.70;;;11.80;99.90;;;;;;5066308;28;20048;-75
2022/11/23 13:14:35;;;;;;;0.55;0.35;;;11.70;99.90;;;;;;5067051;28;20044;-73